sensor_id;sensor_type;location;lat;lon;timestamp;P1;durP1;ratioP1;P2;durP2;ratioP2
56511;SDS011;42408;53.238;5.686;2022-09-02T00:00:40;5.13;;;3.70;;
56511;SDS011;42408;53.238;5.686;2022-09-02T00:03:14;5.20;;;3.50;;
56511;SDS011;42408;53.238;5.686;2022-09-02T00:05:40;5.20;;;3.65;;
56511;SDS011;42408;53.238;5.686;2022-09-02T00:08:06;4.47;;;3.30;;
56511;SDS011;42408;53.238;5.686;2022-09-02T00:10:34;4.68;;;3.00;;
56511;SDS011;42408;53.238;5.686;2022-09-02T00:13:02;5.40;;;3.65;;
56511;SDS011;42408;53.238;5.686;2022-09-02T00:15:29;5.85;;;3.15;;
56511;SDS011;42408;53.238;5.686;2022-09-02T00:17:55;4.82;;;2.97;;
56511;SDS011;42408;53.238;5.686;2022-09-02T00:20:21;6.25;;;3.10;;
56511;SDS011;42408;53.238;5.686;2022-09-02T00:22:47;5.03;;;3.30;;
56511;SDS011;42408;53.238;5.686;2022-09-02T00:25:13;4.40;;;3.07;;
56511;SDS011;42408;53.238;5.686;2022-09-02T00:27:38;6.00;;;3.17;;
56511;SDS011;42408;53.238;5.686;2022-09-02T00:30:04;4.70;;;3.20;;
56511;SDS011;42408;53.238;5.686;2022-09-02T00:32:30;5.32;;;3.28;;
56511;SDS011;42408;53.238;5.686;2022-09-02T00:34:56;4.50;;;3.13;;
56511;SDS011;42408;53.238;5.686;2022-09-02T00:37:23;7.13;;;3.45;;
56511;SDS011;42408;53.238;5.686;2022-09-02T00:39:52;5.65;;;3.40;;
56511;SDS011;42408;53.238;5.686;2022-09-02T00:42:22;5.35;;;2.95;;
56511;SDS011;42408;53.238;5.686;2022-09-02T00:44:49;5.07;;;3.10;;
56511;SDS011;42408;53.238;5.686;2022-09-02T00:47:15;5.78;;;3.50;;
56511;SDS011;42408;53.238;5.686;2022-09-02T00:49:42;4.70;;;3.15;;
56511;SDS011;42408;53.238;5.686;2022-09-02T00:52:17;5.07;;;3.45;;
56511;SDS011;42408;53.238;5.686;2022-09-02T00:54:46;5.47;;;3.13;;
56511;SDS011;42408;53.238;5.686;2022-09-02T00:57:17;6.45;;;3.58;;
56511;SDS011;42408;53.238;5.686;2022-09-02T01:02:29;8.13;;;3.53;;
56511;SDS011;42408;53.238;5.686;2022-09-02T01:04:56;5.57;;;3.50;;
56511;SDS011;42408;53.238;5.686;2022-09-02T01:07:27;6.63;;;3.15;;
56511;SDS011;42408;53.238;5.686;2022-09-02T01:09:54;4.93;;;2.97;;
56511;SDS011;42408;53.238;5.686;2022-09-02T01:12:21;5.78;;;3.20;;
56511;SDS011;42408;53.238;5.686;2022-09-02T01:14:48;5.40;;;3.50;;
56511;SDS011;42408;53.238;5.686;2022-09-02T01:17:14;4.50;;;3.10;;
56511;SDS011;42408;53.238;5.686;2022-09-02T01:19:45;5.65;;;3.30;;
56511;SDS011;42408;53.238;5.686;2022-09-02T01:22:18;5.05;;;3.45;;
56511;SDS011;42408;53.238;5.686;2022-09-02T01:24:53;4.82;;;3.20;;
56511;SDS011;42408;53.238;5.686;2022-09-02T01:27:22;5.47;;;3.47;;
56511;SDS011;42408;53.238;5.686;2022-09-02T01:29:51;4.72;;;3.38;;
56511;SDS011;42408;53.238;5.686;2022-09-02T01:32:19;4.72;;;3.10;;
56511;SDS011;42408;53.238;5.686;2022-09-02T01:34:45;5.60;;;3.05;;
56511;SDS011;42408;53.238;5.686;2022-09-02T01:37:11;6.00;;;3.13;;
56511;SDS011;42408;53.238;5.686;2022-09-02T01:39:36;7.07;;;2.77;;
56511;SDS011;42408;53.238;5.686;2022-09-02T01:42:02;6.67;;;2.97;;
56511;SDS011;42408;53.238;5.686;2022-09-02T01:44:28;5.57;;;2.90;;
56511;SDS011;42408;53.238;5.686;2022-09-02T01:46:54;4.17;;;3.20;;
56511;SDS011;42408;53.238;5.686;2022-09-02T01:49:20;4.97;;;3.50;;
56511;SDS011;42408;53.238;5.686;2022-09-02T01:54:12;4.75;;;2.83;;
56511;SDS011;42408;53.238;5.686;2022-09-02T01:56:38;3.87;;;2.87;;
56511;SDS011;42408;53.238;5.686;2022-09-02T01:59:04;5.97;;;3.60;;
56511;SDS011;42408;53.238;5.686;2022-09-02T02:01:32;7.60;;;3.40;;
56511;SDS011;42408;53.238;5.686;2022-09-02T02:03:58;6.13;;;3.53;;
56511;SDS011;42408;53.238;5.686;2022-09-02T02:06:25;5.30;;;3.17;;
56511;SDS011;42408;53.238;5.686;2022-09-02T02:08:51;6.60;;;3.22;;
56511;SDS011;42408;53.238;5.686;2022-09-02T02:11:22;6.40;;;3.40;;
56511;SDS011;42408;53.238;5.686;2022-09-02T02:13:49;5.57;;;3.20;;
56511;SDS011;42408;53.238;5.686;2022-09-02T02:16:15;6.07;;;3.60;;
56511;SDS011;42408;53.238;5.686;2022-09-02T02:18:41;4.32;;;3.20;;
56511;SDS011;42408;53.238;5.686;2022-09-02T02:21:06;5.03;;;3.20;;
56511;SDS011;42408;53.238;5.686;2022-09-02T02:23:32;7.00;;;3.50;;
56511;SDS011;42408;53.238;5.686;2022-09-02T02:25:58;5.60;;;3.43;;
56511;SDS011;42408;53.238;5.686;2022-09-02T02:28:24;5.17;;;3.10;;
56511;SDS011;42408;53.238;5.686;2022-09-02T02:30:50;4.63;;;3.33;;
56511;SDS011;42408;53.238;5.686;2022-09-02T02:33:16;6.73;;;3.30;;
56511;SDS011;42408;53.238;5.686;2022-09-02T02:35:42;4.83;;;3.13;;
56511;SDS011;42408;53.238;5.686;2022-09-02T02:38:07;5.17;;;3.03;;
56511;SDS011;42408;53.238;5.686;2022-09-02T02:40:34;5.20;;;3.00;;
56511;SDS011;42408;53.238;5.686;2022-09-02T02:43:00;5.25;;;3.13;;
56511;SDS011;42408;53.238;5.686;2022-09-02T02:45:26;4.60;;;3.10;;
56511;SDS011;42408;53.238;5.686;2022-09-02T02:47:52;6.57;;;3.20;;
56511;SDS011;42408;53.238;5.686;2022-09-02T02:50:19;6.68;;;3.15;;
56511;SDS011;42408;53.238;5.686;2022-09-02T02:52:46;4.53;;;3.17;;
56511;SDS011;42408;53.238;5.686;2022-09-02T02:55:13;6.60;;;3.25;;
56511;SDS011;42408;53.238;5.686;2022-09-02T02:57:39;5.47;;;3.30;;
56511;SDS011;42408;53.238;5.686;2022-09-02T03:00:11;6.00;;;3.28;;
56511;SDS011;42408;53.238;5.686;2022-09-02T03:02:39;4.57;;;2.97;;
56511;SDS011;42408;53.238;5.686;2022-09-02T03:05:05;4.57;;;3.07;;
56511;SDS011;42408;53.238;5.686;2022-09-02T03:07:32;5.30;;;3.28;;
56511;SDS011;42408;53.238;5.686;2022-09-02T03:09:58;4.90;;;3.00;;
56511;SDS011;42408;53.238;5.686;2022-09-02T03:12:24;6.40;;;3.20;;
56511;SDS011;42408;53.238;5.686;2022-09-02T03:14:50;4.83;;;3.20;;
56511;SDS011;42408;53.238;5.686;2022-09-02T03:17:17;5.72;;;2.90;;
56511;SDS011;42408;53.238;5.686;2022-09-02T03:19:42;5.87;;;3.40;;
56511;SDS011;42408;53.238;5.686;2022-09-02T03:22:08;7.10;;;3.10;;
56511;SDS011;42408;53.238;5.686;2022-09-02T03:24:36;6.05;;;3.20;;
56511;SDS011;42408;53.238;5.686;2022-09-02T03:27:02;4.72;;;3.20;;
56511;SDS011;42408;53.238;5.686;2022-09-02T03:29:28;5.20;;;3.67;;
56511;SDS011;42408;53.238;5.686;2022-09-02T03:31:54;6.10;;;3.63;;
56511;SDS011;42408;53.238;5.686;2022-09-02T03:34:20;6.47;;;3.20;;
56511;SDS011;42408;53.238;5.686;2022-09-02T03:36:46;5.97;;;3.60;;
56511;SDS011;42408;53.238;5.686;2022-09-02T03:39:11;5.23;;;3.40;;
56511;SDS011;42408;53.238;5.686;2022-09-02T03:41:37;4.80;;;3.10;;
56511;SDS011;42408;53.238;5.686;2022-09-02T03:44:06;8.63;;;3.47;;
56511;SDS011;42408;53.238;5.686;2022-09-02T03:46:33;4.57;;;3.05;;
56511;SDS011;42408;53.238;5.686;2022-09-02T03:48:59;5.60;;;3.35;;
56511;SDS011;42408;53.238;5.686;2022-09-02T03:51:25;6.20;;;3.60;;
56511;SDS011;42408;53.238;5.686;2022-09-02T03:53:52;6.20;;;3.33;;
56511;SDS011;42408;53.238;5.686;2022-09-02T03:56:18;5.10;;;3.17;;
56511;SDS011;42408;53.238;5.686;2022-09-02T03:58:45;7.77;;;3.67;;
56511;SDS011;42408;53.238;5.686;2022-09-02T04:01:16;7.10;;;3.65;;
56511;SDS011;42408;53.238;5.686;2022-09-02T04:03:43;4.63;;;3.15;;
56511;SDS011;42408;53.238;5.686;2022-09-02T04:06:10;4.50;;;3.20;;
56511;SDS011;42408;53.238;5.686;2022-09-02T04:08:37;4.13;;;3.25;;
56511;SDS011;42408;53.238;5.686;2022-09-02T04:11:05;5.90;;;3.58;;
56511;SDS011;42408;53.238;5.686;2022-09-02T04:13:32;5.10;;;3.30;;
56511;SDS011;42408;53.238;5.686;2022-09-02T04:15:58;5.80;;;3.47;;
56511;SDS011;42408;53.238;5.686;2022-09-02T04:18:23;5.47;;;3.70;;
56511;SDS011;42408;53.238;5.686;2022-09-02T04:20:49;4.40;;;2.97;;
56511;SDS011;42408;53.238;5.686;2022-09-02T04:23:14;4.47;;;3.20;;
56511;SDS011;42408;53.238;5.686;2022-09-02T04:25:41;5.50;;;3.23;;
56511;SDS011;42408;53.238;5.686;2022-09-02T04:30:33;5.82;;;3.33;;
56511;SDS011;42408;53.238;5.686;2022-09-02T04:32:58;5.30;;;3.23;;
56511;SDS011;42408;53.238;5.686;2022-09-02T04:35:24;5.83;;;3.30;;
56511;SDS011;42408;53.238;5.686;2022-09-02T04:37:49;5.20;;;3.30;;
56511;SDS011;42408;53.238;5.686;2022-09-02T04:40:15;5.37;;;3.30;;
56511;SDS011;42408;53.238;5.686;2022-09-02T04:42:41;5.95;;;3.33;;
56511;SDS011;42408;53.238;5.686;2022-09-02T04:45:07;6.23;;;3.43;;
56511;SDS011;42408;53.238;5.686;2022-09-02T04:47:33;4.63;;;3.58;;
56511;SDS011;42408;53.238;5.686;2022-09-02T04:49:59;4.87;;;3.33;;
56511;SDS011;42408;53.238;5.686;2022-09-02T04:52:25;6.43;;;3.50;;
56511;SDS011;42408;53.238;5.686;2022-09-02T04:54:50;5.87;;;3.33;;
56511;SDS011;42408;53.238;5.686;2022-09-02T04:57:16;5.80;;;3.33;;
56511;SDS011;42408;53.238;5.686;2022-09-02T04:59:42;5.77;;;3.50;;
56511;SDS011;42408;53.238;5.686;2022-09-02T05:02:08;5.60;;;3.50;;
56511;SDS011;42408;53.238;5.686;2022-09-02T05:04:34;5.00;;;3.45;;
56511;SDS011;42408;53.238;5.686;2022-09-02T05:07:01;4.47;;;3.20;;
56511;SDS011;42408;53.238;5.686;2022-09-02T05:09:27;6.15;;;3.70;;
56511;SDS011;42408;53.238;5.686;2022-09-02T05:11:54;5.70;;;3.47;;
56511;SDS011;42408;53.238;5.686;2022-09-02T05:14:23;5.10;;;3.70;;
56511;SDS011;42408;53.238;5.686;2022-09-02T05:16:49;4.25;;;3.45;;
56511;SDS011;42408;53.238;5.686;2022-09-02T05:19:19;6.47;;;3.63;;
56511;SDS011;42408;53.238;5.686;2022-09-02T05:21:47;6.78;;;3.50;;
56511;SDS011;42408;53.238;5.686;2022-09-02T05:24:14;6.53;;;3.70;;
56511;SDS011;42408;53.238;5.686;2022-09-02T05:26:41;5.70;;;3.75;;
56511;SDS011;42408;53.238;5.686;2022-09-02T05:29:08;5.80;;;3.78;;
56511;SDS011;42408;53.238;5.686;2022-09-02T05:34:01;6.88;;;3.92;;
56511;SDS011;42408;53.238;5.686;2022-09-02T05:36:27;6.45;;;3.30;;
56511;SDS011;42408;53.238;5.686;2022-09-02T05:38:53;6.97;;;3.90;;
56511;SDS011;42408;53.238;5.686;2022-09-02T05:41:20;6.00;;;3.53;;
56511;SDS011;42408;53.238;5.686;2022-09-02T05:43:47;6.75;;;3.75;;
56511;SDS011;42408;53.238;5.686;2022-09-02T05:46:15;7.53;;;3.63;;
56511;SDS011;42408;53.238;5.686;2022-09-02T05:48:43;10.05;;;4.05;;
56511;SDS011;42408;53.238;5.686;2022-09-02T05:51:28;6.82;;;3.47;;
56511;SDS011;42408;53.238;5.686;2022-09-02T05:53:55;5.35;;;3.45;;
56511;SDS011;42408;53.238;5.686;2022-09-02T05:56:22;4.82;;;3.35;;
56511;SDS011;42408;53.238;5.686;2022-09-02T05:58:48;5.97;;;3.33;;
56511;SDS011;42408;53.238;5.686;2022-09-02T06:01:15;4.45;;;3.72;;
56511;SDS011;42408;53.238;5.686;2022-09-02T06:03:41;4.97;;;3.63;;
56511;SDS011;42408;53.238;5.686;2022-09-02T06:06:07;6.23;;;3.37;;
56511;SDS011;42408;53.238;5.686;2022-09-02T06:08:33;4.90;;;3.27;;
56511;SDS011;42408;53.238;5.686;2022-09-02T06:10:59;5.88;;;3.53;;
56511;SDS011;42408;53.238;5.686;2022-09-02T06:13:27;6.28;;;3.28;;
56511;SDS011;42408;53.238;5.686;2022-09-02T06:15:53;6.80;;;3.20;;
56511;SDS011;42408;53.238;5.686;2022-09-02T06:18:20;6.43;;;3.60;;
56511;SDS011;42408;53.238;5.686;2022-09-02T06:20:46;5.90;;;3.30;;
56511;SDS011;42408;53.238;5.686;2022-09-02T06:23:12;6.03;;;3.10;;
56511;SDS011;42408;53.238;5.686;2022-09-02T06:25:40;5.57;;;2.63;;
56511;SDS011;42408;53.238;5.686;2022-09-02T06:28:07;6.72;;;2.70;;
56511;SDS011;42408;53.238;5.686;2022-09-02T06:30:33;7.78;;;2.90;;
56511;SDS011;42408;53.238;5.686;2022-09-02T06:33:01;9.15;;;3.17;;
56511;SDS011;42408;53.238;5.686;2022-09-02T06:35:28;7.85;;;2.60;;
56511;SDS011;42408;53.238;5.686;2022-09-02T06:37:55;5.03;;;2.50;;
56511;SDS011;42408;53.238;5.686;2022-09-02T06:40:22;4.72;;;2.13;;
56511;SDS011;42408;53.238;5.686;2022-09-02T06:42:47;5.33;;;2.13;;
56511;SDS011;42408;53.238;5.686;2022-09-02T06:45:14;5.70;;;2.35;;
56511;SDS011;42408;53.238;5.686;2022-09-02T06:47:40;3.80;;;2.03;;
56511;SDS011;42408;53.238;5.686;2022-09-02T06:50:06;8.10;;;2.35;;
56511;SDS011;42408;53.238;5.686;2022-09-02T06:52:32;4.78;;;2.47;;
56511;SDS011;42408;53.238;5.686;2022-09-02T06:54:58;3.78;;;2.10;;
56511;SDS011;42408;53.238;5.686;2022-09-02T06:57:24;3.85;;;2.40;;
56511;SDS011;42408;53.238;5.686;2022-09-02T06:59:50;4.20;;;2.20;;
56511;SDS011;42408;53.238;5.686;2022-09-02T07:02:15;4.73;;;2.17;;
56511;SDS011;42408;53.238;5.686;2022-09-02T07:04:41;5.03;;;2.30;;
56511;SDS011;42408;53.238;5.686;2022-09-02T07:07:25;6.13;;;2.20;;
56511;SDS011;42408;53.238;5.686;2022-09-02T07:09:51;7.60;;;2.40;;
56511;SDS011;42408;53.238;5.686;2022-09-02T07:12:17;6.10;;;2.35;;
56511;SDS011;42408;53.238;5.686;2022-09-02T07:14:44;5.90;;;2.07;;
56511;SDS011;42408;53.238;5.686;2022-09-02T07:17:10;4.57;;;1.80;;
56511;SDS011;42408;53.238;5.686;2022-09-02T07:19:42;4.30;;;1.95;;
56511;SDS011;42408;53.238;5.686;2022-09-02T07:22:08;4.68;;;2.53;;
56511;SDS011;42408;53.238;5.686;2022-09-02T07:24:35;2.85;;;1.83;;
56511;SDS011;42408;53.238;5.686;2022-09-02T07:27:02;4.05;;;2.03;;
56511;SDS011;42408;53.238;5.686;2022-09-02T07:29:28;5.83;;;1.90;;
56511;SDS011;42408;53.238;5.686;2022-09-02T07:31:54;4.37;;;2.07;;
56511;SDS011;42408;53.238;5.686;2022-09-02T07:34:20;4.17;;;1.97;;
56511;SDS011;42408;53.238;5.686;2022-09-02T07:36:45;5.78;;;1.92;;
56511;SDS011;42408;53.238;5.686;2022-09-02T07:41:42;3.97;;;2.05;;
56511;SDS011;42408;53.238;5.686;2022-09-02T07:44:09;5.20;;;2.00;;
56511;SDS011;42408;53.238;5.686;2022-09-02T07:46:35;6.80;;;2.33;;
56511;SDS011;42408;53.238;5.686;2022-09-02T07:49:02;5.82;;;2.50;;
56511;SDS011;42408;53.238;5.686;2022-09-02T07:51:32;3.50;;;2.25;;
56511;SDS011;42408;53.238;5.686;2022-09-02T07:53:59;7.78;;;3.03;;
56511;SDS011;42408;53.238;5.686;2022-09-02T07:56:26;4.45;;;2.17;;
56511;SDS011;42408;53.238;5.686;2022-09-02T07:58:51;8.57;;;2.77;;
56511;SDS011;42408;53.238;5.686;2022-09-02T08:01:17;7.20;;;2.10;;
56511;SDS011;42408;53.238;5.686;2022-09-02T08:03:44;4.68;;;2.10;;
56511;SDS011;42408;53.238;5.686;2022-09-02T08:06:11;3.17;;;1.93;;
56511;SDS011;42408;53.238;5.686;2022-09-02T08:08:37;5.95;;;1.95;;
56511;SDS011;42408;53.238;5.686;2022-09-02T08:11:04;5.07;;;2.20;;
56511;SDS011;42408;53.238;5.686;2022-09-02T08:13:31;6.63;;;2.00;;
56511;SDS011;42408;53.238;5.686;2022-09-02T08:15:57;4.85;;;2.30;;
56511;SDS011;42408;53.238;5.686;2022-09-02T08:18:22;6.70;;;2.87;;
56511;SDS011;42408;53.238;5.686;2022-09-02T08:20:49;4.80;;;2.10;;
56511;SDS011;42408;53.238;5.686;2022-09-02T08:23:15;4.25;;;2.20;;
56511;SDS011;42408;53.238;5.686;2022-09-02T08:25:41;3.03;;;1.73;;
56511;SDS011;42408;53.238;5.686;2022-09-02T08:28:07;5.43;;;1.90;;
56511;SDS011;42408;53.238;5.686;2022-09-02T08:30:33;5.22;;;1.90;;
56511;SDS011;42408;53.238;5.686;2022-09-02T08:32:59;5.53;;;1.57;;
56511;SDS011;42408;53.238;5.686;2022-09-02T08:35:25;2.83;;;1.67;;
56511;SDS011;42408;53.238;5.686;2022-09-02T08:37:51;4.97;;;1.92;;
56511;SDS011;42408;53.238;5.686;2022-09-02T08:40:18;4.80;;;1.80;;
56511;SDS011;42408;53.238;5.686;2022-09-02T08:42:49;4.70;;;1.50;;
56511;SDS011;42408;53.238;5.686;2022-09-02T08:48:40;3.63;;;1.60;;
56511;SDS011;42408;53.238;5.686;2022-09-02T08:50:44;4.55;;;1.70;;
56511;SDS011;42408;53.238;5.686;2022-09-02T08:55:58;3.72;;;1.80;;
56511;SDS011;42408;53.238;5.686;2022-09-02T08:58:28;4.63;;;1.67;;
56511;SDS011;42408;53.238;5.686;2022-09-02T09:01:12;3.20;;;1.60;;
56511;SDS011;42408;53.238;5.686;2022-09-02T09:12:45;3.65;;;1.77;;
56511;SDS011;42408;53.238;5.686;2022-09-02T09:15:28;6.68;;;1.73;;
56511;SDS011;42408;53.238;5.686;2022-09-02T09:18:16;4.07;;;1.73;;
56511;SDS011;42408;53.238;5.686;2022-09-02T09:20:50;4.75;;;1.80;;
56511;SDS011;42408;53.238;5.686;2022-09-02T09:26:08;6.05;;;1.77;;
56511;SDS011;42408;53.238;5.686;2022-09-02T09:28:45;3.30;;;1.67;;
56511;SDS011;42408;53.238;5.686;2022-09-02T09:31:16;4.05;;;1.77;;
56511;SDS011;42408;53.238;5.686;2022-09-02T09:33:54;4.90;;;1.70;;
56511;SDS011;42408;53.238;5.686;2022-09-02T09:36:41;12.15;;;1.90;;
56511;SDS011;42408;53.238;5.686;2022-09-02T09:41:56;3.40;;;1.55;;
56511;SDS011;42408;53.238;5.686;2022-09-02T09:44:37;4.72;;;1.60;;
56511;SDS011;42408;53.238;5.686;2022-09-02T09:47:07;6.13;;;1.30;;
56511;SDS011;42408;53.238;5.686;2022-09-02T09:49:41;6.38;;;1.60;;
56511;SDS011;42408;53.238;5.686;2022-09-02T09:52:06;4.18;;;1.55;;
56511;SDS011;42408;53.238;5.686;2022-09-02T09:54:32;3.07;;;1.50;;
56511;SDS011;42408;53.238;5.686;2022-09-02T09:57:14;3.60;;;1.40;;
56511;SDS011;42408;53.238;5.686;2022-09-02T09:59:47;5.03;;;1.13;;
56511;SDS011;42408;53.238;5.686;2022-09-02T10:02:24;4.13;;;1.30;;
56511;SDS011;42408;53.238;5.686;2022-09-02T10:04:52;2.38;;;1.27;;
56511;SDS011;42408;53.238;5.686;2022-09-02T10:07:35;3.85;;;1.40;;
56511;SDS011;42408;53.238;5.686;2022-09-02T10:10:14;3.35;;;1.40;;
56511;SDS011;42408;53.238;5.686;2022-09-02T10:12:41;4.25;;;1.30;;
56511;SDS011;42408;53.238;5.686;2022-09-02T10:15:08;3.45;;;1.40;;
56511;SDS011;42408;53.238;5.686;2022-09-02T10:17:52;5.70;;;1.50;;
56511;SDS011;42408;53.238;5.686;2022-09-02T10:23:30;4.35;;;1.30;;
56511;SDS011;42408;53.238;5.686;2022-09-02T10:32:08;4.10;;;1.40;;
56511;SDS011;42408;53.238;5.686;2022-09-02T10:34:48;6.00;;;1.30;;
56511;SDS011;42408;53.238;5.686;2022-09-02T10:42:55;2.63;;;1.35;;
56511;SDS011;42408;53.238;5.686;2022-09-02T10:51:02;3.00;;;1.15;;
56511;SDS011;42408;53.238;5.686;2022-09-02T10:53:35;3.72;;;1.20;;
56511;SDS011;42408;53.238;5.686;2022-09-02T10:56:10;3.75;;;1.33;;
56511;SDS011;42408;53.238;5.686;2022-09-02T10:58:49;7.78;;;2.03;;
56511;SDS011;42408;53.238;5.686;2022-09-02T11:01:19;3.67;;;1.13;;
56511;SDS011;42408;53.238;5.686;2022-09-02T11:03:55;2.78;;;1.10;;
56511;SDS011;42408;53.238;5.686;2022-09-02T11:06:22;3.72;;;1.25;;
56511;SDS011;42408;53.238;5.686;2022-09-02T11:08:52;2.58;;;0.93;;
56511;SDS011;42408;53.238;5.686;2022-09-02T11:11:36;2.13;;;1.17;;
56511;SDS011;42408;53.238;5.686;2022-09-02T11:14:21;2.17;;;0.90;;
56511;SDS011;42408;53.238;5.686;2022-09-02T11:19:27;1.80;;;1.00;;
56511;SDS011;42408;53.238;5.686;2022-09-02T11:27:22;2.88;;;1.38;;
56511;SDS011;42408;53.238;5.686;2022-09-02T11:32:28;3.00;;;1.05;;
56511;SDS011;42408;53.238;5.686;2022-09-02T11:35:19;3.42;;;1.30;;
56511;SDS011;42408;53.238;5.686;2022-09-02T11:40:22;2.80;;;1.15;;
56511;SDS011;42408;53.238;5.686;2022-09-02T11:43:06;2.22;;;1.25;;
56511;SDS011;42408;53.238;5.686;2022-09-02T11:53:43;2.90;;;1.30;;
56511;SDS011;42408;53.238;5.686;2022-09-02T11:58:49;4.10;;;1.40;;
56511;SDS011;42408;53.238;5.686;2022-09-02T12:06:27;2.35;;;1.10;;
56511;SDS011;42408;53.238;5.686;2022-09-02T12:11:39;2.40;;;1.25;;
56511;SDS011;42408;53.238;5.686;2022-09-02T12:17:06;2.80;;;1.38;;
56511;SDS011;42408;53.238;5.686;2022-09-02T12:19:40;13.45;;;2.20;;
56511;SDS011;42408;53.238;5.686;2022-09-02T12:24:48;4.70;;;1.30;;
56511;SDS011;42408;53.238;5.686;2022-09-02T12:27:31;3.47;;;1.70;;
56511;SDS011;42408;53.238;5.686;2022-09-02T12:30:00;8.45;;;1.77;;
56511;SDS011;42408;53.238;5.686;2022-09-02T12:35:34;6.32;;;1.55;;
56511;SDS011;42408;53.238;5.686;2022-09-02T12:40:36;4.28;;;1.35;;
56511;SDS011;42408;53.238;5.686;2022-09-02T12:45:50;3.17;;;1.50;;
56511;SDS011;42408;53.238;5.686;2022-09-02T12:48:18;3.90;;;1.33;;
56511;SDS011;42408;53.238;5.686;2022-09-02T12:50:53;4.55;;;1.60;;
56511;SDS011;42408;53.238;5.686;2022-09-02T12:58:37;5.57;;;1.38;;
56511;SDS011;42408;53.238;5.686;2022-09-02T13:06:34;3.72;;;1.30;;
56511;SDS011;42408;53.238;5.686;2022-09-02T13:09:40;3.55;;;1.52;;
56511;SDS011;42408;53.238;5.686;2022-09-02T13:21:09;4.90;;;1.50;;
56511;SDS011;42408;53.238;5.686;2022-09-02T13:23:56;2.75;;;1.38;;
56511;SDS011;42408;53.238;5.686;2022-09-02T13:26:42;2.40;;;1.20;;
56511;SDS011;42408;53.238;5.686;2022-09-02T13:34:50;3.05;;;1.42;;
56511;SDS011;42408;53.238;5.686;2022-09-02T13:42:48;2.40;;;1.50;;
56511;SDS011;42408;53.238;5.686;2022-09-02T13:45:16;3.70;;;1.20;;
56511;SDS011;42408;53.238;5.686;2022-09-02T13:47:44;4.15;;;1.50;;
56511;SDS011;42408;53.238;5.686;2022-09-02T13:50:12;4.68;;;1.55;;
56511;SDS011;42408;53.238;5.686;2022-09-02T13:52:41;3.65;;;1.50;;
56511;SDS011;42408;53.238;5.686;2022-09-02T13:55:12;4.65;;;1.17;;
56511;SDS011;42408;53.238;5.686;2022-09-02T13:57:42;5.53;;;1.60;;
56511;SDS011;42408;53.238;5.686;2022-09-02T14:00:12;4.32;;;1.40;;
56511;SDS011;42408;53.238;5.686;2022-09-02T14:02:39;4.28;;;1.30;;
56511;SDS011;42408;53.238;5.686;2022-09-02T14:05:21;5.47;;;1.48;;
56511;SDS011;42408;53.238;5.686;2022-09-02T14:07:52;4.07;;;1.55;;
56511;SDS011;42408;53.238;5.686;2022-09-02T14:10:21;2.08;;;1.50;;
56511;SDS011;42408;53.238;5.686;2022-09-02T14:12:51;7.10;;;1.90;;
56511;SDS011;42408;53.238;5.686;2022-09-02T14:15:22;3.63;;;1.73;;
56511;SDS011;42408;53.238;5.686;2022-09-02T14:18:07;5.35;;;1.75;;
56511;SDS011;42408;53.238;5.686;2022-09-02T14:23:28;6.20;;;1.52;;
56511;SDS011;42408;53.238;5.686;2022-09-02T14:25:58;3.97;;;1.50;;
56511;SDS011;42408;53.238;5.686;2022-09-02T14:28:26;4.60;;;1.42;;
56511;SDS011;42408;53.238;5.686;2022-09-02T14:31:04;2.72;;;1.50;;
56511;SDS011;42408;53.238;5.686;2022-09-02T14:33:38;3.47;;;1.60;;
56511;SDS011;42408;53.238;5.686;2022-09-02T14:43:49;4.60;;;1.40;;
56511;SDS011;42408;53.238;5.686;2022-09-02T14:49:08;3.45;;;1.27;;
56511;SDS011;42408;53.238;5.686;2022-09-02T14:51:49;2.28;;;1.50;;
56511;SDS011;42408;53.238;5.686;2022-09-02T14:54:33;4.80;;;1.70;;
56511;SDS011;42408;53.238;5.686;2022-09-02T14:56:59;3.80;;;1.80;;
56511;SDS011;42408;53.238;5.686;2022-09-02T14:59:25;6.15;;;1.67;;
56511;SDS011;42408;53.238;5.686;2022-09-02T15:01:51;2.75;;;1.50;;
56511;SDS011;42408;53.238;5.686;2022-09-02T15:04:18;2.33;;;1.35;;
56511;SDS011;42408;53.238;5.686;2022-09-02T15:06:45;3.60;;;1.90;;
56511;SDS011;42408;53.238;5.686;2022-09-02T15:09:11;4.40;;;1.95;;
56511;SDS011;42408;53.238;5.686;2022-09-02T15:11:40;3.53;;;1.45;;
56511;SDS011;42408;53.238;5.686;2022-09-02T15:14:09;2.92;;;1.55;;
56511;SDS011;42408;53.238;5.686;2022-09-02T15:16:36;4.95;;;1.50;;
56511;SDS011;42408;53.238;5.686;2022-09-02T15:19:03;3.65;;;1.50;;
56511;SDS011;42408;53.238;5.686;2022-09-02T15:23:55;5.60;;;1.30;;
56511;SDS011;42408;53.238;5.686;2022-09-02T15:26:20;4.90;;;1.60;;
56511;SDS011;42408;53.238;5.686;2022-09-02T15:28:47;6.68;;;2.08;;
56511;SDS011;42408;53.238;5.686;2022-09-02T15:31:13;6.28;;;1.75;;
56511;SDS011;42408;53.238;5.686;2022-09-02T15:33:39;5.43;;;1.90;;
56511;SDS011;42408;53.238;5.686;2022-09-02T15:36:14;3.92;;;1.55;;
56511;SDS011;42408;53.238;5.686;2022-09-02T15:38:40;3.65;;;1.52;;
56511;SDS011;42408;53.238;5.686;2022-09-02T15:41:16;4.75;;;1.90;;
56511;SDS011;42408;53.238;5.686;2022-09-02T15:43:44;2.85;;;1.30;;
56511;SDS011;42408;53.238;5.686;2022-09-02T15:46:24;3.55;;;1.60;;
56511;SDS011;42408;53.238;5.686;2022-09-02T15:48:52;4.45;;;1.63;;
56511;SDS011;42408;53.238;5.686;2022-09-02T15:51:20;2.80;;;1.40;;
56511;SDS011;42408;53.238;5.686;2022-09-02T15:53:52;2.50;;;1.38;;
56511;SDS011;42408;53.238;5.686;2022-09-02T15:56:26;4.55;;;1.52;;
56511;SDS011;42408;53.238;5.686;2022-09-02T15:59:03;3.95;;;1.80;;
56511;SDS011;42408;53.238;5.686;2022-09-02T16:01:35;5.75;;;1.80;;
56511;SDS011;42408;53.238;5.686;2022-09-02T16:04:03;4.78;;;2.20;;
56511;SDS011;42408;53.238;5.686;2022-09-02T16:06:30;2.53;;;1.60;;
56511;SDS011;42408;53.238;5.686;2022-09-02T16:08:59;3.85;;;1.52;;
56511;SDS011;42408;53.238;5.686;2022-09-02T16:11:25;4.82;;;1.67;;
56511;SDS011;42408;53.238;5.686;2022-09-02T16:13:50;3.55;;;1.70;;
56511;SDS011;42408;53.238;5.686;2022-09-02T16:16:17;3.78;;;1.52;;
56511;SDS011;42408;53.238;5.686;2022-09-02T16:18:43;5.63;;;1.88;;
56511;SDS011;42408;53.238;5.686;2022-09-02T16:21:10;3.80;;;1.38;;
56511;SDS011;42408;53.238;5.686;2022-09-02T16:23:37;3.15;;;1.65;;
56511;SDS011;42408;53.238;5.686;2022-09-02T16:28:43;2.95;;;1.60;;
56511;SDS011;42408;53.238;5.686;2022-09-02T16:31:11;3.40;;;2.00;;
56511;SDS011;42408;53.238;5.686;2022-09-02T16:33:41;7.07;;;2.08;;
56511;SDS011;42408;53.238;5.686;2022-09-02T16:36:08;3.85;;;1.90;;
56511;SDS011;42408;53.238;5.686;2022-09-02T16:38:35;6.40;;;1.90;;
56511;SDS011;42408;53.238;5.686;2022-09-02T16:43:28;4.72;;;1.70;;
56511;SDS011;42408;53.238;5.686;2022-09-02T16:45:55;5.63;;;2.10;;
56511;SDS011;42408;53.238;5.686;2022-09-02T16:48:28;7.22;;;2.40;;
56511;SDS011;42408;53.238;5.686;2022-09-02T16:50:59;6.40;;;2.63;;
56511;SDS011;42408;53.238;5.686;2022-09-02T16:53:27;4.32;;;1.83;;
56511;SDS011;42408;53.238;5.686;2022-09-02T16:55:52;7.13;;;2.00;;
56511;SDS011;42408;53.238;5.686;2022-09-02T16:58:18;4.70;;;2.00;;
56511;SDS011;42408;53.238;5.686;2022-09-02T17:00:43;6.20;;;2.17;;
56511;SDS011;42408;53.238;5.686;2022-09-02T17:03:09;5.95;;;1.73;;
56511;SDS011;42408;53.238;5.686;2022-09-02T17:05:36;6.07;;;2.05;;
56511;SDS011;42408;53.238;5.686;2022-09-02T17:08:03;4.85;;;2.35;;
56511;SDS011;42408;53.238;5.686;2022-09-02T17:10:30;5.82;;;1.98;;
56511;SDS011;42408;53.238;5.686;2022-09-02T17:12:57;6.30;;;2.45;;
56511;SDS011;42408;53.238;5.686;2022-09-02T17:15:23;3.33;;;1.90;;
56511;SDS011;42408;53.238;5.686;2022-09-02T17:17:50;5.18;;;1.85;;
56511;SDS011;42408;53.238;5.686;2022-09-02T17:22:42;4.95;;;1.85;;
56511;SDS011;42408;53.238;5.686;2022-09-02T17:25:08;4.60;;;2.00;;
56511;SDS011;42408;53.238;5.686;2022-09-02T17:27:34;4.47;;;1.95;;
56511;SDS011;42408;53.238;5.686;2022-09-02T17:30:02;6.05;;;2.67;;